sensor_id;sensor_type;location;lat;lon;timestamp;P1;P4;P2;P0;N10;N4;N25;N1;N05;TS
81046;SPS30;70539;51.970;5.670;2023-09-19T00:00:26;1.8;1.8;1.7;1.6;;;;1.0;80.0;
81046;SPS30;70539;51.970;5.670;2023-09-19T00:02:56;2.8;2.7;2.6;2.3;;;;1.0;82.0;
81046;SPS30;70539;51.970;5.670;2023-09-19T00:05:26;2.0;2.0;1.8;1.6;;;;1.0;87.0;
81046;SPS30;70539;51.970;5.670;2023-09-19T00:07:57;2.2;2.2;2.0;1.8;;;;1.0;83.0;
81046;SPS30;70539;51.970;5.670;2023-09-19T00:10:26;2.1;2.1;1.9;1.7;;;;1.0;79.0;
81046;SPS30;70539;51.970;5.670;2023-09-19T00:12:57;2.1;2.0;1.9;1.7;;;;1.0;82.0;
81046;SPS30;70539;51.970;5.670;2023-09-19T00:15:26;2.1;2.0;1.9;1.7;;;;1.0;81.0;
81046;SPS30;70539;51.970;5.670;2023-09-19T00:17:56;2.0;1.9;1.8;1.6;;;;1.0;88.0;
81046;SPS30;70539;51.970;5.670;2023-09-19T00:20:26;1.9;1.9;1.8;1.6;;;;1.0;98.0;
81046;SPS30;70539;51.970;5.670;2023-09-19T00:22:56;2.3;2.2;2.1;1.8;;;;1.0;102.0;
81046;SPS30;70539;51.970;5.670;2023-09-19T00:25:25;2.4;2.3;2.2;1.9;;;;1.0;101.0;
81046;SPS30;70539;51.970;5.670;2023-09-19T00:27:54;2.3;2.2;2.1;1.8;;;;1.0;94.0;
81046;SPS30;70539;51.970;5.670;2023-09-19T00:30:24;2.0;1.9;1.8;1.6;;;;1.0;110.0;
81046;SPS30;70539;51.970;5.670;2023-09-19T00:32:53;1.7;1.7;1.6;1.5;;;;1.0;107.0;
81046;SPS30;70539;51.970;5.670;2023-09-19T00:35:21;1.7;1.7;1.7;1.5;;;;1.0;85.0;
81046;SPS30;70539;51.970;5.670;2023-09-19T00:37:51;2.3;2.2;2.2;2.0;;;;1.0;88.0;
81046;SPS30;70539;51.970;5.670;2023-09-19T00:40:21;2.1;2.0;1.9;1.7;;;;1.0;76.0;
81046;SPS30;70539;51.970;5.670;2023-09-19T00:42:53;1.8;1.7;1.7;1.5;;;;1.0;77.0;
81046;SPS30;70539;51.970;5.670;2023-09-19T00:45:27;2.4;2.3;2.1;1.9;;;;1.0;79.0;
81046;SPS30;70539;51.970;5.670;2023-09-19T00:47:56;2.1;2.0;1.9;1.6;;;;1.0;86.0;
81046;SPS30;70539;51.970;5.670;2023-09-19T00:50:25;2.4;2.4;2.2;2.0;;;;1.0;93.0;
81046;SPS30;70539;51.970;5.670;2023-09-19T00:52:55;2.1;2.1;2.0;1.7;;;;1.0;101.0;
81046;SPS30;70539;51.970;5.670;2023-09-19T00:55:24;1.9;1.9;1.8;1.5;;;;1.0;101.0;
81046;SPS30;70539;51.970;5.670;2023-09-19T00:57:56;2.0;2.0;1.8;1.6;;;;1.0;98.0;
81046;SPS30;70539;51.970;5.670;2023-09-19T01:00:25;3.2;3.1;2.9;2.5;;;;1.0;77.0;
81046;SPS30;70539;51.970;5.670;2023-09-19T01:03:00;2.9;2.8;2.6;2.3;;;;1.0;93.0;
81046;SPS30;70539;51.970;5.670;2023-09-19T01:05:29;2.5;2.5;2.3;2.1;;;;1.0;100.0;
81046;SPS30;70539;51.970;5.670;2023-09-19T01:07:58;2.9;2.9;2.7;2.3;;;;1.0;90.0;
81046;SPS30;70539;51.970;5.670;2023-09-19T01:10:27;2.1;2.0;1.9;1.7;;;;1.0;115.0;
81046;SPS30;70539;51.970;5.670;2023-09-19T01:13:00;2.9;2.9;2.7;2.4;;;;1.0;97.0;
81046;SPS30;70539;51.970;5.670;2023-09-19T01:15:40;2.1;2.0;1.9;1.6;;;;1.0;103.0;
81046;SPS30;70539;51.970;5.670;2023-09-19T01:18:20;2.7;2.6;2.3;2.0;;;;1.0;99.0;
81046;SPS30;70539;51.970;5.670;2023-09-19T01:21:00;2.6;2.5;2.3;2.0;;;;1.0;85.0;
81046;SPS30;70539;51.970;5.670;2023-09-19T01:23:44;2.4;2.3;2.2;1.9;;;;1.0;101.0;
81046;SPS30;70539;51.970;5.670;2023-09-19T01:26:38;2.8;2.7;2.5;2.1;;;;1.0;116.0;
81046;SPS30;70539;51.970;5.670;2023-09-19T01:29:33;2.6;2.5;2.3;1.9;;;;1.0;114.0;
81046;SPS30;70539;51.970;5.670;2023-09-19T01:32:08;3.8;3.6;3.2;2.7;;;;1.0;99.0;
81046;SPS30;70539;51.970;5.670;2023-09-19T01:34:46;3.0;2.9;2.6;2.2;;;;1.0;101.0;
81046;SPS30;70539;51.970;5.670;2023-09-19T01:37:16;3.3;3.2;2.9;2.4;;;;1.0;99.0;
81046;SPS30;70539;51.970;5.670;2023-09-19T01:39:47;3.3;3.1;2.8;2.2;;;;1.0;115.0;
81046;SPS30;70539;51.970;5.670;2023-09-19T01:42:23;3.2;3.0;2.7;2.3;;;;1.0;109.0;
81046;SPS30;70539;51.970;5.670;2023-09-19T01:45:02;3.0;2.9;2.6;2.2;;;;1.0;101.0;
81046;SPS30;70539;51.970;5.670;2023-09-19T01:47:37;2.7;2.6;2.3;1.8;;;;1.0;104.0;
81046;SPS30;70539;51.970;5.670;2023-09-19T01:50:16;3.7;3.5;3.1;2.5;;;;1.0;110.0;
81046;SPS30;70539;51.970;5.670;2023-09-19T01:52:54;3.3;3.2;2.7;2.2;;;;1.0;93.0;
81046;SPS30;70539;51.970;5.670;2023-09-19T01:55:30;3.5;3.3;2.8;2.2;;;;1.0;96.0;
81046;SPS30;70539;51.970;5.670;2023-09-19T01:58:13;3.3;3.2;2.7;2.2;;;;1.0;74.0;
81046;SPS30;70539;51.970;5.670;2023-09-19T02:00:45;3.4;3.2;2.7;2.1;;;;1.0;84.0;
81046;SPS30;70539;51.970;5.670;2023-09-19T02:03:18;2.9;2.7;2.4;1.9;;;;1.0;95.0;
81046;SPS30;70539;51.970;5.670;2023-09-19T02:05:51;3.5;3.3;2.9;2.3;;;;1.0;95.0;
81046;SPS30;70539;51.970;5.670;2023-09-19T02:08:21;3.3;3.1;2.7;2.2;;;;1.0;94.0;
81046;SPS30;70539;51.970;5.670;2023-09-19T02:10:51;3.9;3.7;3.2;2.5;;;;1.0;95.0;
81046;SPS30;70539;51.970;5.670;2023-09-19T02:13:20;3.5;3.3;2.8;2.2;;;;1.0;106.0;
81046;SPS30;70539;51.970;5.670;2023-09-19T02:15:52;3.1;3.0;2.5;2.0;;;;1.0;111.0;
81046;SPS30;70539;51.970;5.670;2023-09-19T02:18:20;3.1;2.9;2.6;2.0;;;;1.0;110.0;
81046;SPS30;70539;51.970;5.670;2023-09-19T02:20:48;3.5;3.3;2.8;2.2;;;;1.0;124.0;
81046;SPS30;70539;51.970;5.670;2023-09-19T02:23:22;3.8;3.6;3.2;2.5;;;;1.0;105.0;
81046;SPS30;70539;51.970;5.670;2023-09-19T02:25:54;4.2;3.9;3.4;2.6;;;;1.0;107.0;
81046;SPS30;70539;51.970;5.670;2023-09-19T02:28:24;3.4;3.2;2.8;2.3;;;;1.0;111.0;
81046;SPS30;70539;51.970;5.670;2023-09-19T02:30:56;3.6;3.4;3.0;2.3;;;;1.0;116.0;
81046;SPS30;70539;51.970;5.670;2023-09-19T02:33:24;3.5;3.3;2.9;2.2;;;;1.0;113.0;
81046;SPS30;70539;51.970;5.670;2023-09-19T02:35:56;3.2;3.0;2.5;1.9;;;;1.0;95.0;
81046;SPS30;70539;51.970;5.670;2023-09-19T02:38:26;3.2;3.0;2.6;2.0;;;;1.0;97.0;
81046;SPS30;70539;51.970;5.670;2023-09-19T02:40:56;3.7;3.5;3.1;2.5;;;;1.0;112.0;
81046;SPS30;70539;51.970;5.670;2023-09-19T02:43:25;4.1;3.8;3.3;2.6;;;;1.0;82.0;
81046;SPS30;70539;51.970;5.670;2023-09-19T02:45:55;4.1;3.9;3.4;2.7;;;;1.0;97.0;
81046;SPS30;70539;51.970;5.670;2023-09-19T02:48:26;3.7;3.5;3.0;2.4;;;;1.0;98.0;
81046;SPS30;70539;51.970;5.670;2023-09-19T02:50:55;3.2;3.0;2.6;2.1;;;;1.0;105.0;
81046;SPS30;70539;51.970;5.670;2023-09-19T02:53:24;3.4;3.2;2.8;2.2;;;;1.0;100.0;
81046;SPS30;70539;51.970;5.670;2023-09-19T02:55:52;3.3;3.1;2.7;2.0;;;;1.0;92.0;
81046;SPS30;70539;51.970;5.670;2023-09-19T02:58:22;3.9;3.6;3.1;2.4;;;;1.0;87.0;
81046;SPS30;70539;51.970;5.670;2023-09-19T03:00:51;4.4;4.2;3.5;2.7;;;;1.0;69.0;
81046;SPS30;70539;51.970;5.670;2023-09-19T03:03:21;3.5;3.3;2.9;2.3;;;;1.0;79.0;
81046;SPS30;70539;51.970;5.670;2023-09-19T03:05:49;3.6;3.3;2.9;2.3;;;;1.0;77.0;
81046;SPS30;70539;51.970;5.670;2023-09-19T03:08:19;3.5;3.3;2.9;2.2;;;;1.0;79.0;
81046;SPS30;70539;51.970;5.670;2023-09-19T03:10:48;3.4;3.2;2.8;2.2;;;;1.0;74.0;
81046;SPS30;70539;51.970;5.670;2023-09-19T03:13:16;3.8;3.6;3.0;2.3;;;;1.0;74.0;
81046;SPS30;70539;51.970;5.670;2023-09-19T03:15:46;3.7;3.4;3.0;2.3;;;;1.0;78.0;
81046;SPS30;70539;51.970;5.670;2023-09-19T03:18:15;3.9;3.6;3.1;2.4;;;;1.0;78.0;
81046;SPS30;70539;51.970;5.670;2023-09-19T03:20:44;3.8;3.5;3.0;2.3;;;;1.0;71.0;
81046;SPS30;70539;51.970;5.670;2023-09-19T03:23:22;3.7;3.4;2.9;2.2;;;;1.0;66.0;
81046;SPS30;70539;51.970;5.670;2023-09-19T03:25:52;3.5;3.3;2.8;2.1;;;;1.0;49.0;
81046;SPS30;70539;51.970;5.670;2023-09-19T03:28:20;4.6;4.3;3.6;2.8;;;;1.0;54.0;
81046;SPS30;70539;51.970;5.670;2023-09-19T03:30:58;4.3;4.0;3.4;2.5;;;;1.0;58.0;
81046;SPS30;70539;51.970;5.670;2023-09-19T03:33:28;3.6;3.4;2.9;2.3;;;;1.0;49.0;
81046;SPS30;70539;51.970;5.670;2023-09-19T03:35:59;4.3;4.0;3.4;2.5;;;;1.0;47.0;
81046;SPS30;70539;51.970;5.670;2023-09-19T03:38:31;3.3;3.1;2.6;2.1;;;;1.0;59.0;
81046;SPS30;70539;51.970;5.670;2023-09-19T03:41:00;3.8;3.6;3.1;2.3;;;;1.0;66.0;
81046;SPS30;70539;51.970;5.670;2023-09-19T03:43:29;3.3;3.1;2.7;2.2;;;;1.0;62.0;
81046;SPS30;70539;51.970;5.670;2023-09-19T03:46:02;3.1;2.9;2.5;1.9;;;;1.0;57.0;
81046;SPS30;70539;51.970;5.670;2023-09-19T03:48:33;4.0;3.7;3.2;2.5;;;;1.0;52.0;
81046;SPS30;70539;51.970;5.670;2023-09-19T03:51:02;3.2;3.0;2.6;2.0;;;;1.0;54.0;
81046;SPS30;70539;51.970;5.670;2023-09-19T03:53:30;3.6;3.3;2.9;2.2;;;;1.0;55.0;
81046;SPS30;70539;51.970;5.670;2023-09-19T03:55:59;3.6;3.4;3.0;2.3;;;;1.0;51.0;
81046;SPS30;70539;51.970;5.670;2023-09-19T03:58:29;3.6;3.4;2.9;2.3;;;;1.0;48.0;
81046;SPS30;70539;51.970;5.670;2023-09-19T04:00:57;3.9;3.7;3.2;2.5;;;;1.0;47.0;
81046;SPS30;70539;51.970;5.670;2023-09-19T04:03:28;3.7;3.5;3.1;2.4;;;;1.0;53.0;
81046;SPS30;70539;51.970;5.670;2023-09-19T04:06:07;3.7;3.4;2.9;2.2;;;;1.0;49.0;
81046;SPS30;70539;51.970;5.670;2023-09-19T04:08:36;3.9;3.7;3.1;2.3;;;;1.0;49.0;
81046;SPS30;70539;51.970;5.670;2023-09-19T04:11:04;3.9;3.6;3.0;2.2;;;;1.0;48.0;
81046;SPS30;70539;51.970;5.670;2023-09-19T04:13:33;3.3;3.1;2.6;2.0;;;;2.0;48.0;
81046;SPS30;70539;51.970;5.670;2023-09-19T04:16:02;3.0;2.9;2.5;1.9;;;;2.0;58.0;
81046;SPS30;70539;51.970;5.670;2023-09-19T04:18:33;3.6;3.4;2.9;2.3;;;;1.0;52.0;
81046;SPS30;70539;51.970;5.670;2023-09-19T04:21:04;3.7;3.5;3.0;2.4;;;;1.0;51.0;
81046;SPS30;70539;51.970;5.670;2023-09-19T04:23:34;3.5;3.3;2.9;2.3;;;;1.0;56.0;
81046;SPS30;70539;51.970;5.670;2023-09-19T04:26:03;3.0;2.8;2.5;2.0;;;;1.0;56.0;
81046;SPS30;70539;51.970;5.670;2023-09-19T04:28:32;3.1;3.0;2.6;2.1;;;;1.0;54.0;
81046;SPS30;70539;51.970;5.670;2023-09-19T04:31:04;3.1;2.9;2.6;2.1;;;;1.0;50.0;
81046;SPS30;70539;51.970;5.670;2023-09-19T04:33:34;3.5;3.3;2.9;2.3;;;;1.0;51.0;
81046;SPS30;70539;51.970;5.670;2023-09-19T04:36:03;3.6;3.4;3.0;2.4;;;;1.0;46.0;
81046;SPS30;70539;51.970;5.670;2023-09-19T04:38:33;2.7;2.5;2.2;1.8;;;;1.0;49.0;
81046;SPS30;70539;51.970;5.670;2023-09-19T04:41:02;2.9;2.7;2.4;2.0;;;;1.0;49.0;
81046;SPS30;70539;51.970;5.670;2023-09-19T04:43:33;3.1;3.0;2.6;2.2;;;;1.0;47.0;
81046;SPS30;70539;51.970;5.670;2023-09-19T04:46:01;3.2;3.0;2.7;2.1;;;;2.0;50.0;
81046;SPS30;70539;51.970;5.670;2023-09-19T04:48:32;3.4;3.2;2.8;2.2;;;;2.0;49.0;
81046;SPS30;70539;51.970;5.670;2023-09-19T04:51:03;3.7;3.5;3.1;2.5;;;;2.0;48.0;
81046;SPS30;70539;51.970;5.670;2023-09-19T04:53:31;3.1;2.9;2.5;2.0;;;;2.0;46.0;
81046;SPS30;70539;51.970;5.670;2023-09-19T04:55:59;3.1;2.9;2.5;1.9;;;;2.0;46.0;
81046;SPS30;70539;51.970;5.670;2023-09-19T04:58:33;3.0;2.9;2.5;2.0;;;;2.0;50.0;
81046;SPS30;70539;51.970;5.670;2023-09-19T05:01:02;3.6;3.4;2.9;2.4;;;;2.0;49.0;
81046;SPS30;70539;51.970;5.670;2023-09-19T05:03:31;3.6;3.4;2.9;2.3;;;;2.0;49.0;
81046;SPS30;70539;51.970;5.670;2023-09-19T05:05:59;3.9;3.6;3.1;2.3;;;;2.0;52.0;
81046;SPS30;70539;51.970;5.670;2023-09-19T05:08:28;3.5;3.3;2.8;2.2;;;;2.0;52.0;
81046;SPS30;70539;51.970;5.670;2023-09-19T05:10:57;3.6;3.4;2.9;2.3;;;;2.0;50.0;
81046;SPS30;70539;51.970;5.670;2023-09-19T05:13:25;3.9;3.6;3.1;2.4;;;;2.0;49.0;
81046;SPS30;70539;51.970;5.670;2023-09-19T05:15:54;3.3;3.1;2.7;2.1;;;;2.0;48.0;
81046;SPS30;70539;51.970;5.670;2023-09-19T05:18:22;3.7;3.5;3.0;2.4;;;;2.0;48.0;
81046;SPS30;70539;51.970;5.670;2023-09-19T05:20:51;3.8;3.6;3.2;2.5;;;;2.0;50.0;
81046;SPS30;70539;51.970;5.670;2023-09-19T05:23:20;2.8;2.6;2.3;1.8;;;;2.0;54.0;
81046;SPS30;70539;51.970;5.670;2023-09-19T05:25:49;3.3;3.1;2.7;2.1;;;;2.0;60.0;
81046;SPS30;70539;51.970;5.670;2023-09-19T05:28:19;3.3;3.1;2.6;2.0;;;;2.0;57.0;
81046;SPS30;70539;51.970;5.670;2023-09-19T05:30:47;4.0;3.7;3.1;2.3;;;;2.0;61.0;
81046;SPS30;70539;51.970;5.670;2023-09-19T05:33:16;3.8;3.5;2.9;2.2;;;;2.0;61.0;
81046;SPS30;70539;51.970;5.670;2023-09-19T05:35:45;3.8;3.5;2.9;2.1;;;;2.0;63.0;
81046;SPS30;70539;51.970;5.670;2023-09-19T05:38:16;3.3;3.1;2.6;2.0;;;;2.0;67.0;
81046;SPS30;70539;51.970;5.670;2023-09-19T05:40:46;4.6;4.2;3.5;2.6;;;;2.0;71.0;
81046;SPS30;70539;51.970;5.670;2023-09-19T05:43:15;4.0;3.8;3.1;2.3;;;;2.0;69.0;
81046;SPS30;70539;51.970;5.670;2023-09-19T05:45:44;4.1;3.8;3.2;2.3;;;;2.0;66.0;
81046;SPS30;70539;51.970;5.670;2023-09-19T05:48:13;3.8;3.5;3.0;2.2;;;;2.0;62.0;
81046;SPS30;70539;51.970;5.670;2023-09-19T05:50:43;4.1;3.8;3.2;2.3;;;;2.0;54.0;
81046;SPS30;70539;51.970;5.670;2023-09-19T05:53:15;3.9;3.6;3.0;2.2;;;;2.0;52.0;
81046;SPS30;70539;51.970;5.670;2023-09-19T05:55:44;3.6;3.3;2.8;2.0;;;;2.0;59.0;
81046;SPS30;70539;51.970;5.670;2023-09-19T05:58:13;4.1;3.8;3.2;2.4;;;;2.0;56.0;
81046;SPS30;70539;51.970;5.670;2023-09-19T06:00:43;4.0;3.7;3.1;2.3;;;;2.0;52.0;
81046;SPS30;70539;51.970;5.670;2023-09-19T06:03:14;3.8;3.6;3.0;2.3;;;;2.0;52.0;
81046;SPS30;70539;51.970;5.670;2023-09-19T06:05:45;4.8;4.4;3.7;2.7;;;;2.0;52.0;
81046;SPS30;70539;51.970;5.670;2023-09-19T06:08:15;3.8;3.5;3.0;2.3;;;;2.0;65.0;
81046;SPS30;70539;51.970;5.670;2023-09-19T06:10:44;4.5;4.2;3.5;2.6;;;;2.0;64.0;
81046;SPS30;70539;51.970;5.670;2023-09-19T06:13:13;4.0;3.7;3.1;2.3;;;;2.0;71.0;
81046;SPS30;70539;51.970;5.670;2023-09-19T06:15:44;3.6;3.4;2.9;2.2;;;;2.0;64.0;
81046;SPS30;70539;51.970;5.670;2023-09-19T06:18:15;3.5;3.3;2.7;2.0;;;;2.0;65.0;
81046;SPS30;70539;51.970;5.670;2023-09-19T06:20:46;4.1;3.8;3.2;2.3;;;;2.0;63.0;
81046;SPS30;70539;51.970;5.670;2023-09-19T06:23:17;3.3;3.0;2.5;1.8;;;;2.0;62.0;
81046;SPS30;70539;51.970;5.670;2023-09-19T06:25:47;3.9;3.6;3.0;2.3;;;;2.0;61.0;
81046;SPS30;70539;51.970;5.670;2023-09-19T06:28:17;3.5;3.3;2.8;2.1;;;;2.0;60.0;
81046;SPS30;70539;51.970;5.670;2023-09-19T06:30:50;3.7;3.5;2.9;2.2;;;;2.0;68.0;
81046;SPS30;70539;51.970;5.670;2023-09-19T06:33:19;3.6;3.4;2.8;2.1;;;;2.0;86.0;
81046;SPS30;70539;51.970;5.670;2023-09-19T06:35:48;3.8;3.6;3.0;2.3;;;;2.0;79.0;
81046;SPS30;70539;51.970;5.670;2023-09-19T06:38:23;3.8;3.6;3.1;2.4;;;;2.0;73.0;
81046;SPS30;70539;51.970;5.670;2023-09-19T06:40:52;3.8;3.6;3.1;2.5;;;;2.0;81.0;
81046;SPS30;70539;51.970;5.670;2023-09-19T06:43:23;4.0;3.8;3.3;2.6;;;;2.0;74.0;
81046;SPS30;70539;51.970;5.670;2023-09-19T06:45:52;3.6;3.4;3.0;2.4;;;;2.0;83.0;
81046;SPS30;70539;51.970;5.670;2023-09-19T06:48:22;4.1;3.9;3.3;2.5;;;;2.0;83.0;
81046;SPS30;70539;51.970;5.670;2023-09-19T06:50:52;3.2;3.0;2.6;2.0;;;;2.0;78.0;
81046;SPS30;70539;51.970;5.670;2023-09-19T06:53:21;3.4;3.2;2.7;2.1;;;;2.0;88.0;
81046;SPS30;70539;51.970;5.670;2023-09-19T06:55:51;3.3;3.1;2.7;2.1;;;;2.0;98.0;
81046;SPS30;70539;51.970;5.670;2023-09-19T06:58:20;3.5;3.3;2.8;2.2;;;;2.0;93.0;
81046;SPS30;70539;51.970;5.670;2023-09-19T07:00:48;4.1;3.9;3.4;2.7;;;;2.0;90.0;
81046;SPS30;70539;51.970;5.670;2023-09-19T07:03:17;3.5;3.3;2.8;2.2;;;;2.0;72.0;
81046;SPS30;70539;51.970;5.670;2023-09-19T07:05:49;4.3;4.0;3.3;2.5;;;;2.0;87.0;
81046;SPS30;70539;51.970;5.670;2023-09-19T07:08:22;4.6;4.2;3.5;2.5;;;;2.0;81.0;
81046;SPS30;70539;51.970;5.670;2023-09-19T07:10:52;4.0;3.7;3.1;2.3;;;;2.0;94.0;
81046;SPS30;70539;51.970;5.670;2023-09-19T07:13:21;4.3;3.9;3.2;2.3;;;;2.0;97.0;
81046;SPS30;70539;51.970;5.670;2023-09-19T07:15:51;4.0;3.8;3.2;2.4;;;;2.0;94.0;
81046;SPS30;70539;51.970;5.670;2023-09-19T07:18:20;3.6;3.4;2.9;2.2;;;;2.0;106.0;
81046;SPS30;70539;51.970;5.670;2023-09-19T07:20:49;3.9;3.6;3.1;2.3;;;;2.0;107.0;
81046;SPS30;70539;51.970;5.670;2023-09-19T07:23:18;4.3;4.0;3.4;2.5;;;;2.0;135.0;
81046;SPS30;70539;51.970;5.670;2023-09-19T07:25:48;3.6;3.4;2.9;2.1;;;;2.0;135.0;
81046;SPS30;70539;51.970;5.670;2023-09-19T07:28:17;3.5;3.3;2.9;2.3;;;;2.0;124.0;
81046;SPS30;70539;51.970;5.670;2023-09-19T07:30:46;4.0;3.7;3.1;2.4;;;;2.0;127.0;
81046;SPS30;70539;51.970;5.670;2023-09-19T07:33:15;4.9;4.5;3.8;2.7;;;;2.0;137.0;
81046;SPS30;70539;51.970;5.670;2023-09-19T07:35:47;4.1;3.8;3.1;2.3;;;;2.0;152.0;
81046;SPS30;70539;51.970;5.670;2023-09-19T07:38:16;4.7;4.3;3.5;2.5;;;;2.0;162.0;
81046;SPS30;70539;51.970;5.670;2023-09-19T07:40:45;4.2;3.9;3.2;2.3;;;;2.0;153.0;
81046;SPS30;70539;51.970;5.670;2023-09-19T07:43:13;4.4;4.0;3.2;2.2;;;;1.0;160.0;
81046;SPS30;70539;51.970;5.670;2023-09-19T07:45:44;4.8;4.4;3.5;2.3;;;;1.0;158.0;
81046;SPS30;70539;51.970;5.670;2023-09-19T07:48:13;5.7;5.2;4.1;2.6;;;;1.0;200.0;
81046;SPS30;70539;51.970;5.670;2023-09-19T07:50:42;4.1;3.8;3.0;2.0;;;;1.0;180.0;
81046;SPS30;70539;51.970;5.670;2023-09-19T07:53:12;4.9;4.4;3.5;2.4;;;;1.0;204.0;
81046;SPS30;70539;51.970;5.670;2023-09-19T07:55:43;4.0;3.6;2.9;2.0;;;;1.0;206.0;
81046;SPS30;70539;51.970;5.670;2023-09-19T07:58:14;4.1;3.8;3.1;2.1;;;;1.0;241.0;
81046;SPS30;70539;51.970;5.670;2023-09-19T08:00:43;4.3;3.9;3.2;2.2;;;;1.0;224.0;
81046;SPS30;70539;51.970;5.670;2023-09-19T08:03:12;4.3;3.9;3.1;2.1;;;;1.0;219.0;
81046;SPS30;70539;51.970;5.670;2023-09-19T08:05:41;5.1;4.7;3.7;2.5;;;;1.0;239.0;
81046;SPS30;70539;51.970;5.670;2023-09-19T08:08:09;3.9;3.6;2.9;2.0;;;;1.0;241.0;
81046;SPS30;70539;51.970;5.670;2023-09-19T08:10:41;4.1;3.8;3.0;2.1;;;;1.0;239.0;
81046;SPS30;70539;51.970;5.670;2023-09-19T08:13:15;4.9;4.5;3.6;2.4;;;;1.0;235.0;
81046;SPS30;70539;51.970;5.670;2023-09-19T08:15:45;4.8;4.4;3.5;2.5;;;;1.0;258.0;
81046;SPS30;70539;51.970;5.670;2023-09-19T08:18:14;4.1;3.8;3.1;2.2;;;;1.0;260.0;
81046;SPS30;70539;51.970;5.670;2023-09-19T08:20:43;3.7;3.4;2.8;2.0;;;;1.0;252.0;
81046;SPS30;70539;51.970;5.670;2023-09-19T08:23:17;4.1;3.7;3.0;2.1;;;;1.0;251.0;
81046;SPS30;70539;51.970;5.670;2023-09-19T08:25:47;3.4;3.1;2.6;1.8;;;;1.0;256.0;
81046;SPS30;70539;51.970;5.670;2023-09-19T08:28:15;4.1;3.8;3.1;2.2;;;;1.0;247.0;
81046;SPS30;70539;51.970;5.670;2023-09-19T08:30:50;4.3;4.0;3.3;2.3;;;;1.0;257.0;
81046;SPS30;70539;51.970;5.670;2023-09-19T08:33:20;4.4;4.0;3.2;2.2;;;;1.0;252.0;
81046;SPS30;70539;51.970;5.670;2023-09-19T08:35:49;5.1;4.7;3.8;2.6;;;;1.0;261.0;
81046;SPS30;70539;51.970;5.670;2023-09-19T08:38:18;4.4;4.1;3.3;2.3;;;;1.0;279.0;
81046;SPS30;70539;51.970;5.670;2023-09-19T08:40:46;4.7;4.2;3.4;2.2;;;;1.0;272.0;
81046;SPS30;70539;51.970;5.670;2023-09-19T08:43:16;4.5;4.1;3.3;2.2;;;;1.0;273.0;
81046;SPS30;70539;51.970;5.670;2023-09-19T08:45:45;5.3;4.9;3.8;2.6;;;;1.0;284.0;
81046;SPS30;70539;51.970;5.670;2023-09-19T08:48:17;3.8;3.5;2.8;1.9;;;;1.0;301.0;
81046;SPS30;70539;51.970;5.670;2023-09-19T08:50:54;4.9;4.5;3.6;2.4;;;;1.0;307.0;
81046;SPS30;70539;51.970;5.670;2023-09-19T08:53:29;4.7;4.3;3.5;2.4;;;;1.0;295.0;
81046;SPS30;70539;51.970;5.670;2023-09-19T08:56:04;4.1;3.8;3.1;2.2;;;;1.0;259.0;
81046;SPS30;70539;51.970;5.670;2023-09-19T08:58:42;4.5;4.2;3.4;2.4;;;;1.0;281.0;
81046;SPS30;70539;51.970;5.670;2023-09-19T09:01:16;4.7;4.3;3.5;2.4;;;;1.0;270.0;
81046;SPS30;70539;51.970;5.670;2023-09-19T09:03:53;3.6;3.3;2.8;2.0;;;;1.0;278.0;
81046;SPS30;70539;51.970;5.670;2023-09-19T09:06:24;4.9;4.5;3.7;2.5;;;;1.0;299.0;
81046;SPS30;70539;51.970;5.670;2023-09-19T09:08:54;4.7;4.3;3.4;2.3;;;;1.0;297.0;
81046;SPS30;70539;51.970;5.670;2023-09-19T09:11:23;4.7;4.3;3.4;2.3;;;;1.0;315.0;
81046;SPS30;70539;51.970;5.670;2023-09-19T09:13:51;5.0;4.6;3.6;2.4;;;;1.0;329.0;
81046;SPS30;70539;51.970;5.670;2023-09-19T09:16:20;4.4;4.1;3.3;2.2;;;;1.0;295.0;
81046;SPS30;70539;51.970;5.670;2023-09-19T09:18:52;3.8;3.5;2.9;2.0;;;;1.0;297.0;
81046;SPS30;70539;51.970;5.670;2023-09-19T09:46:24;3.9;3.6;3.1;2.3;;;;1.0;54.0;
81046;SPS30;70539;51.970;5.670;2023-09-19T09:49:10;4.0;3.7;3.1;2.2;;;;1.0;99.0;
81046;SPS30;70539;51.970;5.670;2023-09-19T09:51:58;3.6;3.3;2.7;2.0;;;;2.0;92.0;
81046;SPS30;70539;51.970;5.670;2023-09-19T09:54:31;4.2;3.9;3.1;2.2;;;;3.0;98.0;
81046;SPS30;70539;51.970;5.670;2023-09-19T09:57:03;3.8;3.5;2.8;2.0;;;;3.0;100.0;
81046;SPS30;70539;51.970;5.670;2023-09-19T09:59:47;4.1;3.7;3.1;2.2;;;;3.0;106.0;
81046;SPS30;70539;51.970;5.670;2023-09-19T10:02:27;3.5;3.2;2.7;1.9;;;;3.0;101.0;
81046;SPS30;70539;51.970;5.670;2023-09-19T10:05:03;3.9;3.6;3.0;2.1;;;;3.0;101.0;
81046;SPS30;70539;51.970;5.670;2023-09-19T10:07:47;3.7;3.5;3.0;2.3;;;;3.0;101.0;
81046;SPS30;70539;51.970;5.670;2023-09-19T10:10:32;4.3;4.0;3.4;2.6;;;;2.0;102.0;
81046;SPS30;70539;51.970;5.670;2023-09-19T10:13:12;3.7;3.4;2.8;2.1;;;;2.0;100.0;
81046;SPS30;70539;51.970;5.670;2023-09-19T10:15:46;3.4;3.2;2.6;1.9;;;;2.0;106.0;
81046;SPS30;70539;51.970;5.670;2023-09-19T10:18:22;3.5;3.2;2.6;1.8;;;;2.0;105.0;
81046;SPS30;70539;51.970;5.670;2023-09-19T10:20:51;4.7;4.3;3.5;2.4;;;;2.0;105.0;
81046;SPS30;70539;51.970;5.670;2023-09-19T10:23:21;3.5;3.2;2.6;1.9;;;;1.0;101.0;
81046;SPS30;70539;51.970;5.670;2023-09-19T10:25:52;4.0;3.6;3.0;2.1;;;;1.0;101.0;
81046;SPS30;70539;51.970;5.670;2023-09-19T10:28:21;3.2;2.9;2.4;1.8;;;;1.0;104.0;
81046;SPS30;70539;51.970;5.670;2023-09-19T10:30:51;3.9;3.6;3.0;2.1;;;;1.0;102.0;
81046;SPS30;70539;51.970;5.670;2023-09-19T10:33:20;3.4;3.1;2.6;1.9;;;;1.0;105.0;
81046;SPS30;70539;51.970;5.670;2023-09-19T10:35:52;3.6;3.3;2.8;2.0;;;;1.0;83.0;
81046;SPS30;70539;51.970;5.670;2023-09-19T10:38:23;3.3;3.1;2.6;2.0;;;;1.0;90.0;
81046;SPS30;70539;51.970;5.670;2023-09-19T10:40:55;3.1;2.9;2.4;1.8;;;;1.0;89.0;
81046;SPS30;70539;51.970;5.670;2023-09-19T10:43:29;4.5;4.2;3.5;2.5;;;;1.0;97.0;
81046;SPS30;70539;51.970;5.670;2023-09-19T10:46:02;3.9;3.6;3.0;2.2;;;;1.0;75.0;
81046;SPS30;70539;51.970;5.670;2023-09-19T10:48:36;3.0;2.8;2.3;1.7;;;;1.0;80.0;
81046;SPS30;70539;51.970;5.670;2023-09-19T10:51:10;3.3;3.1;2.6;1.9;;;;1.0;80.0;
81046;SPS30;70539;51.970;5.670;2023-09-19T10:53:45;3.3;3.0;2.6;2.0;;;;1.0;77.0;
81046;SPS30;70539;51.970;5.670;2023-09-19T10:56:21;3.3;3.1;2.7;2.1;;;;1.0;66.0;
81046;SPS30;70539;51.970;5.670;2023-09-19T10:59:08;2.8;2.7;2.3;1.7;;;;1.0;60.0;
81046;SPS30;70539;51.970;5.670;2023-09-19T11:01:45;2.9;2.7;2.3;1.8;;;;1.0;54.0;
81046;SPS30;70539;51.970;5.670;2023-09-19T11:04:24;2.7;2.6;2.2;1.6;;;;1.0;53.0;
81046;SPS30;70539;51.970;5.670;2023-09-19T11:07:03;3.4;3.2;2.7;2.0;;;;1.0;56.0;
81046;SPS30;70539;51.970;5.670;2023-09-19T11:09:47;3.1;2.9;2.4;1.8;;;;1.0;60.0;
81046;SPS30;70539;51.970;5.670;2023-09-19T15:56:33;2.5;2.3;2.1;1.7;;;;1.0;49.0;
81046;SPS30;70539;51.970;5.670;2023-09-19T15:59:07;1.9;1.9;1.7;1.4;;;;2.0;92.0;
81046;SPS30;70539;51.970;5.670;2023-09-19T16:01:39;2.1;2.0;1.8;1.6;;;;5.0;97.0;
81046;SPS30;70539;51.970;5.670;2023-09-19T16:04:09;2.2;2.1;2.0;1.8;;;;8.0;103.0;
81046;SPS30;70539;51.970;5.670;2023-09-19T16:06:40;1.6;1.5;1.5;1.3;;;;9.0;98.0;
81046;SPS30;70539;51.970;5.670;2023-09-19T16:09:11;2.3;2.3;2.2;2.0;;;;9.0;99.0;
81046;SPS30;70539;51.970;5.670;2023-09-19T16:11:40;1.6;1.6;1.5;1.4;;;;9.0;99.0;
81046;SPS30;70539;51.970;5.670;2023-09-19T16:14:09;2.0;1.9;1.9;1.7;;;;9.0;97.0;
81046;SPS30;70539;51.970;5.670;2023-09-19T16:16:38;2.2;2.2;2.1;1.9;;;;8.0;100.0;
81046;SPS30;70539;51.970;5.670;2023-09-19T16:19:10;2.1;2.0;2.0;1.8;;;;7.0;102.0;
81046;SPS30;70539;51.970;5.670;2023-09-19T16:21:40;2.6;2.6;2.5;2.3;;;;6.0;102.0;
81046;SPS30;70539;51.970;5.670;2023-09-19T16:24:10;2.0;2.0;1.9;1.7;;;;6.0;104.0;
81046;SPS30;70539;51.970;5.670;2023-09-19T16:26:39;2.1;2.0;2.0;1.8;;;;5.0;102.0;
81046;SPS30;70539;51.970;5.670;2023-09-19T16:29:07;2.1;2.1;2.1;1.9;;;;4.0;103.0;
81046;SPS30;70539;51.970;5.670;2023-09-19T16:31:36;2.3;2.3;2.2;2.0;;;;3.0;103.0;
81046;SPS30;70539;51.970;5.670;2023-09-19T16:34:07;2.5;2.5;2.4;2.2;;;;3.0;101.0;
81046;SPS30;70539;51.970;5.670;2023-09-19T16:36:36;1.9;1.9;1.8;1.7;;;;3.0;102.0;
81046;SPS30;70539;51.970;5.670;2023-09-19T16:39:04;1.8;1.8;1.7;1.6;;;;2.0;101.0;
81046;SPS30;70539;51.970;5.670;2023-09-19T16:41:33;1.7;1.7;1.7;1.5;;;;2.0;99.0;
81046;SPS30;70539;51.970;5.670;2023-09-19T16:44:05;1.7;1.7;1.7;1.5;;;;2.0;102.0;
81046;SPS30;70539;51.970;5.670;2023-09-19T16:46:35;2.0;2.0;1.9;1.8;;;;2.0;100.0;
81046;SPS30;70539;51.970;5.670;2023-09-19T16:49:03;1.9;1.9;1.8;1.7;;;;2.0;103.0;
81046;SPS30;70539;51.970;5.670;2023-09-19T16:51:32;2.1;2.1;2.1;1.9;;;;1.0;106.0;
81046;SPS30;70539;51.970;5.670;2023-09-19T16:54:01;2.2;2.2;2.1;2.0;;;;1.0;108.0;
81046;SPS30;70539;51.970;5.670;2023-09-19T16:56:29;2.5;2.5;2.5;2.3;;;;1.0;121.0;
81046;SPS30;70539;51.970;5.670;2023-09-19T16:58:59;2.0;2.0;1.9;1.8;;;;1.0;122.0;
81046;SPS30;70539;51.970;5.670;2023-09-19T17:01:30;2.0;2.0;1.9;1.8;;;;1.0;126.0;
81046;SPS30;70539;51.970;5.670;2023-09-19T17:03:58;2.2;2.2;2.1;2.0;;;;1.0;129.0;
81046;SPS30;70539;51.970;5.670;2023-09-19T17:06:28;2.2;2.2;2.1;2.0;;;;1.0;132.0;
81046;SPS30;70539;51.970;5.670;2023-09-19T17:08:57;2.5;2.4;2.4;2.2;;;;1.0;127.0;
81046;SPS30;70539;51.970;5.670;2023-09-19T17:11:25;2.0;1.9;1.9;1.7;;;;1.0;124.0;
81046;SPS30;70539;51.970;5.670;2023-09-19T17:13:55;2.3;2.2;2.1;2.0;;;;1.0;118.0;
81046;SPS30;70539;51.970;5.670;2023-09-19T17:16:24;2.2;2.1;2.1;1.9;;;;1.0;118.0;
81046;SPS30;70539;51.970;5.670;2023-09-19T17:18:56;2.3;2.3;2.2;2.0;;;;1.0;104.0;
81046;SPS30;70539;51.970;5.670;2023-09-19T17:21:27;2.1;2.1;2.0;1.8;;;;1.0;139.0;
81046;SPS30;70539;51.970;5.670;2023-09-19T17:23:57;2.3;2.3;2.2;2.0;;;;1.0;138.0;
81046;SPS30;70539;51.970;5.670;2023-09-19T17:26:29;2.3;2.2;2.2;2.0;;;;1.0;138.0;
81046;SPS30;70539;51.970;5.670;2023-09-19T17:28:59;2.5;2.5;2.4;2.2;;;;1.0;123.0;
81046;SPS30;70539;51.970;5.670;2023-09-19T17:31:28;2.4;2.4;2.4;2.2;;;;1.0;109.0;
81046;SPS30;70539;51.970;5.670;2023-09-19T17:33:57;2.1;2.0;2.0;1.8;;;;1.0;113.0;
81046;SPS30;70539;51.970;5.670;2023-09-19T17:36:26;2.2;2.1;2.1;1.9;;;;1.0;114.0;